createdAt,value
2022-12-17T00:00:42.620Z,11.65
2022-12-17T00:03:29.825Z,10.38
2022-12-17T00:06:15.636Z,13.18
2022-12-17T00:09:01.529Z,13.30
2022-12-17T00:11:47.051Z,11.50
2022-12-17T00:14:32.971Z,15.57
2022-12-17T00:17:18.669Z,11.05
2022-12-17T00:20:04.534Z,10.97
2022-12-17T00:22:50.337Z,12.07
2022-12-17T00:25:35.899Z,10.60
2022-12-17T00:28:21.713Z,11.57
2022-12-17T00:31:11.120Z,11.05
2022-12-17T00:33:56.726Z,11.82
2022-12-17T00:36:42.697Z,9.05
2022-12-17T00:39:28.583Z,10.02
2022-12-17T00:42:15.801Z,12.55
2022-12-17T00:45:01.646Z,10.85
2022-12-17T00:47:47.472Z,12.20
2022-12-17T00:50:33.122Z,11.20
2022-12-17T00:53:18.835Z,13.75
2022-12-17T00:56:04.242Z,13.38
2022-12-17T00:58:49.913Z,12.05
2022-12-17T01:01:49.523Z,14.13
2022-12-17T01:04:35.517Z,14.75
2022-12-17T01:07:21.542Z,10.25
2022-12-17T01:10:18.213Z,12.20
2022-12-17T01:13:04.206Z,11.25
2022-12-17T01:15:49.916Z,11.55
2022-12-17T01:18:37.728Z,13.85
2022-12-17T01:21:25.042Z,9.05
2022-12-17T01:24:10.915Z,9.90
2022-12-17T01:26:56.791Z,12.95
2022-12-17T01:29:42.443Z,10.80
2022-12-17T01:32:28.131Z,12.02
2022-12-17T01:35:13.983Z,11.73
2022-12-17T01:37:59.724Z,9.40
2022-12-17T01:40:45.654Z,9.15
2022-12-17T01:43:31.887Z,8.60
2022-12-17T01:46:18.326Z,9.32
2022-12-17T01:49:06.532Z,9.38
2022-12-17T01:51:54.414Z,9.38
2022-12-17T01:54:40.573Z,11.10
2022-12-17T01:57:26.997Z,11.43
2022-12-17T02:00:25.082Z,9.88
2022-12-17T02:03:10.964Z,9.27
2022-12-17T02:06:16.969Z,10.07
2022-12-17T02:09:21.156Z,9.15
2022-12-17T02:12:29.430Z,11.45
2022-12-17T02:15:28.005Z,10.95
2022-12-17T02:18:19.706Z,11.13
2022-12-17T02:21:09.406Z,10.13
2022-12-17T02:23:56.566Z,10.18
2022-12-17T02:27:03.090Z,11.55
2022-12-17T02:29:58.557Z,11.02
2022-12-17T02:32:45.583Z,11.63
2022-12-17T02:35:38.577Z,9.90
2022-12-17T02:38:42.278Z,12.35
2022-12-17T02:41:35.228Z,11.43
2022-12-17T02:44:22.419Z,9.88
2022-12-17T02:47:10.394Z,10.70
2022-12-17T02:49:56.317Z,9.85
2022-12-17T02:52:43.497Z,9.95
2022-12-17T02:55:30.445Z,10.25
2022-12-17T02:58:16.488Z,9.45
2022-12-17T03:01:02.288Z,9.55
2022-12-17T03:03:50.454Z,8.60
2022-12-17T03:06:36.656Z,8.80
2022-12-17T03:09:22.442Z,9.48
2022-12-17T03:12:15.672Z,10.80
2022-12-17T03:15:01.575Z,11.95
2022-12-17T03:17:48.836Z,9.52
2022-12-17T03:20:34.716Z,11.05
2022-12-17T03:23:26.101Z,9.43
2022-12-17T03:26:12.057Z,9.73
2022-12-17T03:28:58.107Z,12.00
2022-12-17T03:31:44.120Z,9.05
2022-12-17T03:34:29.812Z,8.82
2022-12-17T03:37:15.596Z,11.75
2022-12-17T03:40:01.371Z,11.68
2022-12-17T03:42:47.312Z,7.68
2022-12-17T03:45:33.298Z,8.68
2022-12-17T03:48:27.276Z,11.40
2022-12-17T03:51:14.167Z,7.90
2022-12-17T03:53:59.862Z,9.32
2022-12-17T03:56:46.509Z,9.02
2022-12-17T03:59:32.319Z,9.55
2022-12-17T04:02:18.554Z,8.40
2022-12-17T04:05:04.633Z,10.38
2022-12-17T04:07:50.653Z,11.40
2022-12-17T04:10:36.503Z,9.43
2022-12-17T04:13:22.461Z,10.65
2022-12-17T04:16:08.603Z,10.43
2022-12-17T04:18:54.218Z,13.43
2022-12-17T04:21:39.964Z,18.40
2022-12-17T04:24:25.556Z,12.75
2022-12-17T04:27:11.461Z,11.90
2022-12-17T04:29:57.215Z,10.75
2022-12-17T04:32:43.132Z,12.88
2022-12-17T04:35:29.019Z,10.90
2022-12-17T04:38:14.893Z,11.02
2022-12-17T04:41:00.572Z,15.60
2022-12-17T04:43:46.396Z,10.77
2022-12-17T04:46:32.122Z,9.95
2022-12-17T04:49:17.941Z,12.07
2022-12-17T04:52:03.870Z,13.57
2022-12-17T04:54:49.754Z,12.07
2022-12-17T04:57:43.270Z,12.65
2022-12-17T05:00:29.459Z,13.13
2022-12-17T05:03:21.858Z,11.75
2022-12-17T05:06:07.630Z,13.68
2022-12-17T05:08:53.650Z,12.15
2022-12-17T05:11:39.714Z,12.18
2022-12-17T05:14:25.552Z,14.25
2022-12-17T05:17:11.586Z,12.07
2022-12-17T05:19:57.151Z,13.40
2022-12-17T05:22:43.145Z,14.77
2022-12-17T05:25:29.015Z,14.87
2022-12-17T05:28:15.062Z,17.23
2022-12-17T05:31:01.846Z,16.17
2022-12-17T05:33:47.785Z,20.23
2022-12-17T05:36:33.554Z,15.60
2022-12-17T05:39:19.275Z,16.73
2022-12-17T05:42:04.848Z,16.53
2022-12-17T05:44:50.412Z,15.73
2022-12-17T05:47:36.230Z,15.60
2022-12-17T05:50:22.800Z,16.47
2022-12-17T05:53:08.559Z,12.20
2022-12-17T05:55:54.569Z,15.77
2022-12-17T05:58:40.248Z,13.90
2022-12-17T06:01:26.354Z,14.57
2022-12-17T06:04:12.363Z,14.40
2022-12-17T06:07:08.924Z,14.83
2022-12-17T06:09:54.684Z,19.43
2022-12-17T06:12:40.513Z,15.40
2022-12-17T06:15:26.926Z,15.30
2022-12-17T06:18:16.949Z,19.63
2022-12-17T06:21:03.492Z,15.03
2022-12-17T06:23:49.532Z,15.75
2022-12-17T06:26:52.137Z,16.80
2022-12-17T06:29:37.556Z,18.52
2022-12-17T06:32:25.171Z,15.47
2022-12-17T06:35:11.048Z,16.00
2022-12-17T06:37:56.722Z,18.17
2022-12-17T06:40:42.667Z,16.23
2022-12-17T06:43:28.576Z,16.67
2022-12-17T06:46:14.343Z,13.80
2022-12-17T06:48:59.953Z,16.23
2022-12-17T06:51:45.442Z,20.20
2022-12-17T06:54:31.421Z,20.50
2022-12-17T06:57:17.007Z,19.17
2022-12-17T07:00:02.837Z,19.67
2022-12-17T07:02:48.727Z,18.00
2022-12-17T07:05:34.220Z,17.67
2022-12-17T07:08:20.167Z,19.57
2022-12-17T07:11:05.877Z,18.20
2022-12-17T07:13:51.588Z,13.50
2022-12-17T07:16:45.142Z,18.33
2022-12-17T07:19:30.880Z,15.05
2022-12-17T07:22:16.700Z,16.47
2022-12-17T07:25:02.369Z,17.23
2022-12-17T07:27:48.178Z,18.70
2022-12-17T07:30:33.791Z,17.83
2022-12-17T07:33:24.705Z,20.03
2022-12-17T07:36:13.874Z,13.67
2022-12-17T07:39:00.197Z,11.60
2022-12-17T07:41:46.139Z,16.73
2022-12-17T07:44:32.371Z,13.80
2022-12-17T07:47:18.151Z,18.77
2022-12-17T07:50:03.825Z,17.33
2022-12-17T07:52:49.630Z,16.27
2022-12-17T07:55:35.485Z,17.20
2022-12-17T07:58:24.649Z,18.07
2022-12-17T08:01:11.048Z,18.93
2022-12-17T08:03:56.730Z,17.27
2022-12-17T08:06:42.351Z,20.10
2022-12-17T08:09:28.315Z,18.03
2022-12-17T08:12:14.121Z,19.53
2022-12-17T08:15:00.008Z,21.30
2022-12-17T08:17:45.874Z,16.60
2022-12-17T08:20:31.880Z,17.47
2022-12-17T08:23:22.146Z,17.10
2022-12-17T08:26:08.229Z,18.53
2022-12-17T08:28:53.887Z,18.67
2022-12-17T08:31:41.751Z,14.30
2022-12-17T08:34:27.301Z,19.60
2022-12-17T08:37:12.909Z,16.47
2022-12-17T08:39:58.754Z,17.07
2022-12-17T08:42:44.651Z,17.27
2022-12-17T08:45:30.515Z,16.83
2022-12-17T08:48:26.789Z,16.97
2022-12-17T08:51:13.052Z,18.53
2022-12-17T08:53:58.994Z,17.90
2022-12-17T08:56:45.489Z,23.77
2022-12-17T08:59:31.413Z,20.37
2022-12-17T09:02:17.285Z,19.27
2022-12-17T09:05:02.886Z,15.87
2022-12-17T09:07:48.818Z,14.37
2022-12-17T09:10:34.730Z,15.47
2022-12-17T09:13:21.989Z,12.67
2022-12-17T09:16:14.746Z,19.87
2022-12-17T09:19:01.862Z,18.67
2022-12-17T09:21:49.360Z,22.40
2022-12-17T09:24:35.431Z,19.63
2022-12-17T09:27:21.519Z,15.13
2022-12-17T09:30:07.321Z,18.57
2022-12-17T09:32:53.025Z,16.17
2022-12-17T09:35:38.829Z,19.73
2022-12-17T09:38:24.629Z,21.63
2022-12-17T09:41:10.996Z,18.37
2022-12-17T09:44:11.930Z,16.13
2022-12-17T09:47:10.823Z,19.83
2022-12-17T09:49:57.217Z,19.60
2022-12-17T09:52:54.049Z,21.70
2022-12-17T09:55:51.558Z,14.33
2022-12-17T09:58:57.129Z,14.10
2022-12-17T10:01:54.233Z,42.80
2022-12-17T10:05:04.411Z,34.33
2022-12-17T10:07:56.044Z,30.55
2022-12-17T10:10:45.518Z,20.20
2022-12-17T10:13:39.693Z,16.48
2022-12-17T10:19:29.817Z,13.02
2022-12-17T10:22:29.290Z,12.75
2022-12-17T10:25:34.966Z,15.35
2022-12-17T10:28:23.967Z,14.68
2022-12-17T10:31:10.436Z,12.07
2022-12-17T10:33:58.377Z,14.85
2022-12-17T10:36:45.551Z,13.25
2022-12-17T10:39:43.366Z,15.40
2022-12-17T10:42:50.212Z,10.32
2022-12-17T10:45:47.272Z,11.93
2022-12-17T10:48:51.290Z,13.40
2022-12-17T10:51:51.352Z,12.65
2022-12-17T10:54:49.616Z,18.08
2022-12-17T10:57:47.440Z,14.73
2022-12-17T11:00:36.287Z,14.57
2022-12-17T11:03:23.430Z,12.43
2022-12-17T11:06:14.181Z,17.20
2022-12-17T11:09:01.263Z,13.45
2022-12-17T11:11:48.306Z,13.55
2022-12-17T11:14:34.594Z,13.05
2022-12-17T11:17:23.775Z,15.18
2022-12-17T11:20:17.749Z,13.00
2022-12-17T11:23:24.735Z,12.75
2022-12-17T11:26:29.465Z,13.77
2022-12-17T11:29:16.843Z,14.10
2022-12-17T11:32:31.673Z,13.20
2022-12-17T11:35:17.612Z,18.95
2022-12-17T11:38:26.940Z,10.02
2022-12-17T11:41:20.724Z,8.52
2022-12-17T11:44:12.536Z,8.38
2022-12-17T11:47:39.112Z,10.73
2022-12-17T11:50:37.696Z,11.05
2022-12-17T11:53:58.553Z,10.70
2022-12-17T11:57:07.004Z,12.77
2022-12-17T12:00:03.764Z,11.80
2022-12-17T12:03:36.894Z,13.45
2022-12-17T12:06:33.540Z,12.00
2022-12-17T12:09:35.731Z,12.88
2022-12-17T12:12:42.975Z,13.85
2022-12-17T12:15:53.609Z,14.27
2022-12-17T12:18:52.536Z,17.08
2022-12-17T12:21:58.287Z,16.27
2022-12-17T12:24:52.670Z,21.70
2022-12-17T12:30:43.448Z,15.23
2022-12-17T12:33:34.989Z,14.73
2022-12-17T12:36:25.039Z,13.82
2022-12-17T12:39:15.976Z,15.30
2022-12-17T12:42:13.942Z,16.70
2022-12-17T12:45:48.537Z,14.73
2022-12-17T12:48:55.671Z,10.57
2022-12-17T12:51:49.568Z,15.00
2022-12-17T12:54:47.779Z,13.20
2022-12-17T12:57:47.023Z,13.95
2022-12-17T13:00:43.205Z,13.50
2022-12-17T13:04:07.577Z,14.32
2022-12-17T13:06:53.777Z,16.45
2022-12-17T13:09:34.853Z,12.93
2022-12-17T13:12:05.637Z,13.13
2022-12-17T13:14:51.162Z,14.80
2022-12-17T13:17:18.431Z,13.33
2022-12-17T13:19:57.920Z,13.77
2022-12-17T13:22:25.283Z,17.03
2022-12-17T13:24:55.384Z,19.00
2022-12-17T13:27:34.718Z,18.27
2022-12-17T13:30:31.879Z,12.27
2022-12-17T13:33:20.768Z,17.23
2022-12-17T13:36:07.406Z,15.10
2022-12-17T13:39:02.699Z,13.67
2022-12-17T13:41:34.675Z,13.33
2022-12-17T13:44:26.368Z,12.57
2022-12-17T13:46:55.391Z,11.57
2022-12-17T13:49:28.089Z,20.27
2022-12-17T13:52:11.678Z,14.87
2022-12-17T13:57:15.346Z,12.43
2022-12-17T13:59:54.315Z,9.07
2022-12-17T14:02:33.350Z,9.90
2022-12-17T14:05:07.652Z,11.27
2022-12-17T14:07:39.614Z,10.07
2022-12-17T14:10:16.964Z,11.50
2022-12-17T14:12:44.464Z,11.80
2022-12-17T14:15:30.304Z,14.60
2022-12-17T14:17:59.347Z,15.67
2022-12-17T14:20:34.197Z,15.20
2022-12-17T14:23:13.659Z,13.50
2022-12-17T14:25:44.678Z,31.17
2022-12-17T14:28:20.870Z,21.73
2022-12-17T14:31:24.406Z,16.20
2022-12-17T14:33:38.277Z,16.17
2022-12-17T14:36:21.826Z,17.33
2022-12-17T14:38:57.666Z,15.93
2022-12-17T14:41:44.088Z,15.10
2022-12-17T14:44:27.851Z,19.90
2022-12-17T14:47:18.507Z,18.08
2022-12-17T14:50:01.597Z,14.03
2022-12-17T14:52:38.177Z,15.63
2022-12-17T14:55:25.291Z,14.33
2022-12-17T14:57:53.939Z,13.80
2022-12-17T15:00:22.223Z,18.03
2022-12-17T15:02:55.589Z,27.30
2022-12-17T15:05:23.424Z,24.02
2022-12-17T15:07:52.014Z,18.20
2022-12-17T15:10:21.589Z,17.40
2022-12-17T15:12:51.712Z,33.30
2022-12-17T15:15:21.128Z,26.83
2022-12-17T15:17:48.636Z,35.27
2022-12-17T15:20:20.798Z,22.03
2022-12-17T15:22:48.759Z,11.97
2022-12-17T15:25:18.815Z,20.33
2022-12-17T15:27:46.720Z,16.17
2022-12-17T15:30:18.244Z,10.37
2022-12-17T15:32:46.360Z,9.17
2022-12-17T15:35:15.218Z,9.57
2022-12-17T15:37:42.618Z,9.27
2022-12-17T15:40:12.176Z,10.40
2022-12-17T15:43:02.919Z,9.47
2022-12-17T15:45:33.372Z,12.93
2022-12-17T15:48:00.951Z,8.57
2022-12-17T15:50:28.873Z,9.50
2022-12-17T15:52:56.177Z,9.30
2022-12-17T15:55:23.778Z,8.83
2022-12-17T15:57:51.184Z,12.47
2022-12-17T16:00:18.783Z,10.13
2022-12-17T16:02:47.444Z,8.57
2022-12-17T16:05:15.311Z,9.73
2022-12-17T16:07:43.816Z,9.50
2022-12-17T16:10:12.613Z,11.97
2022-12-17T16:12:40.243Z,12.03
2022-12-17T16:15:08.581Z,11.67
2022-12-17T16:17:36.822Z,10.37
2022-12-17T16:20:05.940Z,9.93
2022-12-17T16:22:33.510Z,8.90
2022-12-17T16:25:00.938Z,9.00
2022-12-17T16:27:28.296Z,10.67
2022-12-17T16:29:55.639Z,8.20
2022-12-17T16:32:23.176Z,10.67
2022-12-17T16:34:50.553Z,7.67
2022-12-17T16:37:17.913Z,10.57
2022-12-17T16:39:45.339Z,7.77
2022-12-17T16:42:12.654Z,8.53
2022-12-17T16:44:40.014Z,7.20
2022-12-17T16:47:07.493Z,8.33
2022-12-17T16:49:34.991Z,9.97
2022-12-17T16:52:03.632Z,8.80
2022-12-17T16:54:32.964Z,8.30
2022-12-17T16:57:01.312Z,8.00
2022-12-17T16:59:29.153Z,9.60
2022-12-17T17:01:57.603Z,10.47
2022-12-17T17:04:25.218Z,9.00
2022-12-17T17:06:55.013Z,11.47
2022-12-17T17:09:23.924Z,12.93
2022-12-17T17:11:52.242Z,19.40
2022-12-17T17:14:20.230Z,21.60
2022-12-17T17:16:47.680Z,24.50
2022-12-17T17:19:15.388Z,26.40
2022-12-17T17:21:48.734Z,26.30
2022-12-17T17:24:21.127Z,25.27
2022-12-17T17:26:50.034Z,25.38
2022-12-17T17:29:17.593Z,20.53
2022-12-17T17:34:33.233Z,27.43
2022-12-17T17:37:00.603Z,20.57
2022-12-17T17:39:27.995Z,18.03
2022-12-17T17:41:55.320Z,19.57
2022-12-17T17:44:22.601Z,17.17
2022-12-17T17:46:50.091Z,17.73
2022-12-17T17:49:18.772Z,21.23
2022-12-17T17:54:34.120Z,18.07
2022-12-17T17:57:01.547Z,16.63
2022-12-17T17:59:33.417Z,14.90
2022-12-17T18:02:03.092Z,19.23
2022-12-17T18:04:31.756Z,10.23
2022-12-17T18:09:47.227Z,9.13
2022-12-17T18:12:32.864Z,7.70
2022-12-17T18:15:17.862Z,8.83
2022-12-17T18:17:47.866Z,8.53
2022-12-17T18:20:15.830Z,5.77
2022-12-17T18:22:46.460Z,6.00
2022-12-17T18:25:14.310Z,5.53
2022-12-17T18:27:41.806Z,6.77
2022-12-17T18:30:09.664Z,8.50
2022-12-17T18:32:36.995Z,6.50
2022-12-17T18:35:04.546Z,6.30
2022-12-17T18:37:32.049Z,6.37
2022-12-17T18:39:59.428Z,6.13
2022-12-17T18:42:45.266Z,6.60
2022-12-17T18:45:12.635Z,11.50
2022-12-17T18:47:40.055Z,9.53
2022-12-17T18:50:07.796Z,11.47
2022-12-17T18:52:35.180Z,9.47
2022-12-17T18:55:02.623Z,10.30
2022-12-17T18:57:30.042Z,8.97
2022-12-17T18:59:57.547Z,8.67
2022-12-17T19:02:24.943Z,13.53
2022-12-17T19:04:52.707Z,13.60
2022-12-17T19:07:20.062Z,16.40
2022-12-17T19:09:47.402Z,19.83
2022-12-17T19:12:14.842Z,18.50
2022-12-17T19:14:43.070Z,13.97
2022-12-17T19:17:10.328Z,12.87
2022-12-17T19:19:37.749Z,14.20
2022-12-17T19:22:05.167Z,14.37
2022-12-17T19:24:32.441Z,13.30
2022-12-17T19:26:59.782Z,14.00
2022-12-17T19:29:27.206Z,21.67
2022-12-17T19:31:54.587Z,16.97
2022-12-17T19:34:22.233Z,18.33
2022-12-17T19:36:49.780Z,20.03
2022-12-17T19:39:20.030Z,32.37
2022-12-17T19:41:48.047Z,28.70
2022-12-17T19:44:17.428Z,14.60
2022-12-17T19:46:45.087Z,21.13
2022-12-17T19:49:14.028Z,29.33
2022-12-17T19:51:44.486Z,20.20
2022-12-17T19:54:14.161Z,18.77
2022-12-17T19:56:42.384Z,16.17
2022-12-17T19:59:12.009Z,16.53
2022-12-17T20:01:45.254Z,16.27
2022-12-17T20:04:14.206Z,19.75
2022-12-17T20:06:41.722Z,17.63
2022-12-17T20:09:09.247Z,17.63
2022-12-17T20:11:37.321Z,14.10
2022-12-17T20:14:16.431Z,12.23
2022-12-17T20:16:46.239Z,10.13
2022-12-17T20:19:26.688Z,13.47
2022-12-17T20:21:55.164Z,8.90
2022-12-17T20:24:28.834Z,8.30
2022-12-17T20:26:58.784Z,8.80
2022-12-17T20:29:26.238Z,8.57
2022-12-17T20:31:54.433Z,8.97
2022-12-17T20:34:24.463Z,7.73
2022-12-17T20:36:52.968Z,9.00
2022-12-17T20:39:26.129Z,8.33
2022-12-17T20:41:54.797Z,8.03
2022-12-17T20:44:22.174Z,8.57
2022-12-17T20:46:49.502Z,8.60
2022-12-17T20:49:16.863Z,9.47
2022-12-17T20:51:44.289Z,7.90
2022-12-17T20:54:12.082Z,10.13
2022-12-17T20:56:40.663Z,8.67
2022-12-17T20:59:09.583Z,7.80
2022-12-17T21:01:37.600Z,7.83
2022-12-17T21:04:07.732Z,6.27
2022-12-17T21:06:40.477Z,8.50
2022-12-17T21:09:08.963Z,10.32
2022-12-17T21:11:37.942Z,7.37
2022-12-17T21:14:08.405Z,7.33
2022-12-17T21:16:37.152Z,7.23
2022-12-17T21:19:06.606Z,6.47
2022-12-17T21:21:37.944Z,5.87
2022-12-17T21:24:06.573Z,7.20
2022-12-17T21:26:36.162Z,8.27
2022-12-17T21:29:05.546Z,6.87
2022-12-17T21:31:33.986Z,8.07
2022-12-17T21:34:04.449Z,7.03
2022-12-17T21:36:34.685Z,6.50
2022-12-17T21:39:09.186Z,6.53
2022-12-17T21:41:39.324Z,6.10
2022-12-17T21:44:12.907Z,5.88
2022-12-17T21:46:41.310Z,5.80
2022-12-17T21:49:08.747Z,6.13
2022-12-17T21:51:36.427Z,6.63
2022-12-17T21:54:08.792Z,6.77
2022-12-17T21:56:37.306Z,6.07
2022-12-17T21:59:04.689Z,6.43
2022-12-17T22:01:34.194Z,7.87
2022-12-17T22:04:04.594Z,6.13
2022-12-17T22:06:44.765Z,6.40
2022-12-17T22:09:37.163Z,8.07
2022-12-17T22:12:28.063Z,6.43
2022-12-17T22:14:55.428Z,5.97
2022-12-17T22:17:23.522Z,6.80
2022-12-17T22:19:50.963Z,7.30
2022-12-17T22:22:18.275Z,9.40
2022-12-17T22:24:45.610Z,7.80
2022-12-17T22:27:13.141Z,7.00
2022-12-17T22:29:58.884Z,7.47
2022-12-17T22:32:44.878Z,8.20
2022-12-17T22:36:31.691Z,7.37
2022-12-17T22:41:05.141Z,6.70
2022-12-17T22:44:18.184Z,5.60
2022-12-17T22:44:48.776Z,6.87
2022-12-17T22:46:23.156Z,6.73
2022-12-17T22:48:50.605Z,5.97
2022-12-17T22:51:23.182Z,6.90
2022-12-17T22:54:05.439Z,6.40
2022-12-17T22:57:33.332Z,7.03
2022-12-17T22:59:25.217Z,6.57
2022-12-17T23:01:52.879Z,6.63
2022-12-17T23:04:20.397Z,7.00
2022-12-17T23:06:48.115Z,8.43
2022-12-17T23:09:19.616Z,10.43
2022-12-17T23:11:49.169Z,8.53
2022-12-17T23:14:17.534Z,9.87
2022-12-17T23:16:45.298Z,9.17
2022-12-17T23:19:16.586Z,8.37
2022-12-17T23:21:44.374Z,11.07
2022-12-17T23:24:11.740Z,9.60
2022-12-17T23:26:40.220Z,11.67
2022-12-17T23:29:19.128Z,11.93
2022-12-17T23:31:47.828Z,15.50
2022-12-17T23:34:15.489Z,14.07
2022-12-17T23:36:42.849Z,10.70
2022-12-17T23:39:10.249Z,12.27
2022-12-17T23:41:37.592Z,14.17
2022-12-17T23:44:05.544Z,12.67
2022-12-17T23:46:32.948Z,12.30
2022-12-17T23:49:00.248Z,15.40
2022-12-17T23:51:28.430Z,17.97
2022-12-17T23:53:55.801Z,16.50
2022-12-17T23:56:26.489Z,20.57
2022-12-17T23:58:56.549Z,31.70
